createdAt,value
2019-03-16T00:02:49.327Z," 8.82"
2019-03-16T00:07:44.744Z," 8.70"
2019-03-16T00:12:40.613Z," 8.67"
2019-03-16T00:17:37.009Z," 8.79"
2019-03-16T00:22:32.972Z," 8.76"
2019-03-16T00:27:29.294Z," 8.76"
2019-03-16T00:32:25.697Z," 8.70"
2019-03-16T00:37:22.627Z," 8.70"
2019-03-16T00:42:17.934Z," 8.76"
2019-03-16T00:47:13.629Z," 8.76"
2019-03-16T00:52:10.793Z," 8.70"
2019-03-16T00:57:07.470Z," 8.69"
2019-03-16T01:02:02.721Z," 8.73"
2019-03-16T01:06:58.145Z," 8.73"
2019-03-16T01:11:54.116Z," 8.85"
2019-03-16T01:16:49.709Z," 8.87"
2019-03-16T01:21:46.408Z," 8.64"
2019-03-16T01:26:41.590Z," 8.70"
2019-03-16T01:31:37.319Z," 8.71"
2019-03-16T01:36:33.061Z," 8.70"
2019-03-16T01:41:29.336Z," 8.69"
2019-03-16T01:46:25.303Z," 8.73"
2019-03-16T01:51:21.333Z," 8.67"
2019-03-16T01:56:17.066Z," 8.61"
2019-03-16T02:01:12.782Z," 8.66"
2019-03-16T02:06:08.425Z," 8.61"
2019-03-16T02:11:04.659Z," 8.51"
2019-03-16T02:16:10.229Z," 8.63"
2019-03-16T02:21:00.709Z," 8.60"
2019-03-16T02:25:56.089Z," 8.51"
2019-03-16T02:30:51.713Z," 8.61"
2019-03-16T02:35:48.473Z," 8.61"
2019-03-16T02:40:45.062Z," 8.56"
2019-03-16T02:45:40.447Z," 8.56"
2019-03-16T02:50:36.242Z," 8.56"
2019-03-16T02:55:32.123Z," 8.51"
2019-03-16T03:00:29.448Z," 8.44"
2019-03-16T03:05:24.859Z," 8.51"
2019-03-16T03:10:21.373Z," 8.49"
2019-03-16T03:15:17.837Z," 8.36"
2019-03-16T03:20:13.105Z," 8.45"
2019-03-16T03:25:09.712Z," 8.51"
2019-03-16T03:30:05.797Z," 8.44"
2019-03-16T03:35:01.819Z," 8.51"
2019-03-16T03:39:58.335Z," 8.42"
2019-03-16T03:44:53.794Z," 8.55"
2019-03-16T03:49:50.030Z," 8.38"
2019-03-16T03:54:45.656Z," 8.52"
2019-03-16T03:59:41.265Z," 8.45"
2019-03-16T04:04:38.189Z," 8.38"
2019-03-16T04:09:34.971Z," 8.46"
2019-03-16T04:14:30.396Z," 8.48"
2019-03-16T04:19:26.114Z," 8.42"
2019-03-16T04:24:21.602Z," 8.49"
2019-03-16T04:29:17.911Z," 8.48"
2019-03-16T04:34:28.101Z," 8.38"
2019-03-16T04:39:13.833Z," 8.48"
2019-03-16T04:44:09.434Z," 8.48"
2019-03-16T04:49:05.363Z," 8.58"
2019-03-16T04:54:01.180Z," 8.56"
2019-03-16T04:58:56.666Z," 8.49"
2019-03-16T05:03:53.676Z," 8.48"
2019-03-16T05:08:48.871Z," 8.44"
2019-03-16T05:13:44.647Z," 8.44"
2019-03-16T05:18:41.063Z," 8.42"
2019-03-16T05:23:36.721Z," 8.31"
2019-03-16T05:28:32.555Z," 8.33"
2019-03-16T05:33:28.214Z," 8.33"
2019-03-16T05:38:24.044Z," 8.28"
2019-03-16T05:43:19.767Z," 8.15"
2019-03-16T05:48:15.499Z," 8.27"
2019-03-16T05:53:11.097Z," 8.10"
2019-03-16T05:58:06.763Z," 8.26"
2019-03-16T06:03:02.428Z," 8.23"
2019-03-16T06:07:58.183Z," 8.08"
2019-03-16T06:12:53.996Z," 8.15"
2019-03-16T06:17:49.472Z," 8.09"
2019-03-16T06:22:45.240Z," 8.15"
2019-03-16T06:27:41.809Z," 7.93"
2019-03-16T06:32:37.362Z," 7.93"
2019-03-16T06:37:33.359Z," 7.91"
2019-03-16T06:42:29.044Z," 7.88"
2019-03-16T06:47:25.875Z," 7.80"
2019-03-16T06:52:21.889Z," 7.75"
2019-03-16T06:57:17.514Z," 7.69"
2019-03-16T07:02:13.852Z," 7.67"
2019-03-16T07:07:09.475Z," 7.70"
2019-03-16T07:12:05.175Z," 7.63"
2019-03-16T07:17:02.411Z," 7.58"
2019-03-16T07:21:58.178Z," 7.57"
2019-03-16T07:26:53.934Z," 7.40"
2019-03-16T07:31:49.799Z," 7.50"
2019-03-16T07:36:45.470Z," 7.48"
2019-03-16T07:41:41.235Z," 7.53"
2019-03-16T07:46:37.132Z," 7.53"
2019-03-16T07:51:32.828Z," 7.51"
2019-03-16T07:56:28.359Z," 7.53"
2019-03-16T08:01:25.036Z," 7.70"
2019-03-16T08:06:20.962Z," 7.66"
2019-03-16T08:11:16.633Z," 7.80"
2019-03-16T08:16:12.531Z," 7.83"
2019-03-16T08:21:09.384Z," 8.03"
2019-03-16T08:26:05.031Z," 8.19"
2019-03-16T08:31:00.782Z," 8.19"
2019-03-16T08:35:57.762Z," 8.24"
2019-03-16T08:40:53.116Z," 8.27"
2019-03-16T08:45:48.638Z," 8.31"
2019-03-16T08:50:45.794Z," 8.45"
2019-03-16T08:55:40.953Z," 8.51"
2019-03-16T09:00:37.027Z," 8.56"
2019-03-16T09:05:32.809Z," 8.71"
2019-03-16T09:10:28.724Z," 8.79"
2019-03-16T09:15:24.740Z," 9.00"
2019-03-16T09:20:20.224Z," 9.14"
2019-03-16T09:25:17.597Z," 9.43"
2019-03-16T09:30:14.111Z," 9.51"
2019-03-16T09:35:10.456Z," 9.72"
2019-03-16T09:40:07.180Z," 9.95"
2019-03-16T09:45:02.855Z,10.17
2019-03-16T09:49:58.910Z,10.35
2019-03-16T09:54:54.907Z,10.42
2019-03-16T09:59:50.792Z,10.68
2019-03-16T10:04:47.791Z,10.61
2019-03-16T10:09:43.298Z,10.74
2019-03-16T10:14:39.229Z,10.86
2019-03-16T10:19:35.703Z,10.87
2019-03-16T10:24:31.437Z,10.87
2019-03-16T10:29:27.272Z,10.84
2019-03-16T10:34:23.053Z,10.72
2019-03-16T10:39:18.814Z,10.74
2019-03-16T10:44:15.392Z,10.63
2019-03-16T10:49:11.084Z,10.63
2019-03-16T10:54:07.075Z,10.64
2019-03-16T10:59:02.858Z,10.60
2019-03-16T11:03:59.033Z,10.57
2019-03-16T11:08:54.567Z,10.63
2019-03-16T11:13:50.592Z,10.63
2019-03-16T11:18:46.419Z,10.72
2019-03-16T11:23:42.607Z,10.72
2019-03-16T11:28:38.467Z,10.75
2019-03-16T11:33:34.334Z,10.84
2019-03-16T11:38:31.128Z,10.89
2019-03-16T11:43:27.771Z,10.96
2019-03-16T11:48:24.883Z,11.07
2019-03-16T11:53:20.515Z,11.11
2019-03-16T11:58:16.395Z,11.11
2019-03-16T12:03:12.280Z,11.30
2019-03-16T12:08:08.077Z,11.32
2019-03-16T12:13:16.505Z,11.26
2019-03-16T12:18:03.139Z,11.35
2019-03-16T12:22:59.130Z,11.32
2019-03-16T12:27:54.995Z,11.30
2019-03-16T12:32:51.738Z,11.47
2019-03-16T12:37:47.403Z,11.47
2019-03-16T12:42:43.266Z,11.55
2019-03-16T12:47:38.912Z,11.55
2019-03-16T12:52:35.780Z,11.55
2019-03-16T12:57:31.719Z,11.59
2019-03-16T13:02:27.752Z,11.57
2019-03-16T13:07:23.518Z,11.69
2019-03-16T13:12:21.401Z,11.86
2019-03-16T13:17:16.900Z,11.83
2019-03-16T13:22:12.776Z,11.91
2019-03-16T13:27:08.803Z,11.90
2019-03-16T13:32:05.342Z,11.86
2019-03-16T13:37:01.833Z,11.86
2019-03-16T13:41:58.325Z,11.86
2019-03-16T13:46:54.151Z,11.87
2019-03-16T13:51:49.779Z,11.77
2019-03-16T13:56:45.269Z,11.68
2019-03-16T14:01:41.844Z,11.66
2019-03-16T14:06:37.240Z,11.52
2019-03-16T14:11:32.970Z,11.59
2019-03-16T14:16:28.847Z,11.51
2019-03-16T14:21:25.013Z,11.51
2019-03-16T14:26:20.800Z,11.51
2019-03-16T14:31:16.219Z,11.45
2019-03-16T14:36:12.499Z,11.47
2019-03-16T14:41:08.922Z,11.45
2019-03-16T14:46:05.582Z,11.48
2019-03-16T14:51:01.738Z,11.57
2019-03-16T14:55:57.585Z,11.66
2019-03-16T15:00:54.333Z,11.60
2019-03-16T15:05:51.188Z,11.66
2019-03-16T15:10:47.112Z,11.86
2019-03-16T15:15:44.131Z,11.87
2019-03-16T15:20:39.786Z,11.99
2019-03-16T15:25:35.798Z,11.95
2019-03-16T15:30:31.265Z,12.10
2019-03-16T15:35:27.374Z,12.13
2019-03-16T15:40:23.262Z,12.02
2019-03-16T15:45:18.763Z,12.03
2019-03-16T15:50:14.297Z,12.02
2019-03-16T15:55:10.502Z,11.91
2019-03-16T16:00:06.245Z,11.94
2019-03-16T16:05:02.997Z,11.90
2019-03-16T16:09:58.634Z,11.99
2019-03-16T16:14:54.435Z,11.94
2019-03-16T16:19:49.988Z,11.86
2019-03-16T16:24:45.539Z,11.75
2019-03-16T16:29:42.254Z,11.73
2019-03-16T16:34:38.692Z,11.66
2019-03-16T16:39:33.973Z,11.65
2019-03-16T16:44:29.739Z,11.68
2019-03-16T16:49:25.221Z,11.59
2019-03-16T16:54:21.927Z,11.55
2019-03-16T16:59:17.661Z,11.59
2019-03-16T17:04:13.489Z,11.57
2019-03-16T17:09:11.292Z,11.68
2019-03-16T17:14:07.604Z,11.55
2019-03-16T17:19:02.930Z,11.52
2019-03-16T17:23:58.721Z,11.48
2019-03-16T17:28:54.348Z,11.57
2019-03-16T17:33:49.913Z,11.51
2019-03-16T17:38:46.798Z,11.54
2019-03-16T17:43:42.172Z,11.57
2019-03-16T17:48:38.141Z,11.59
2019-03-16T17:53:34.347Z,11.59
2019-03-16T17:58:29.967Z,11.48
2019-03-16T18:03:26.404Z,11.54
2019-03-16T18:08:23.282Z,11.54
2019-03-16T18:13:18.564Z,11.57
2019-03-16T18:18:15.556Z,11.55
2019-03-16T18:23:11.933Z,11.52
2019-03-16T18:28:07.909Z,11.60
2019-03-16T18:33:03.542Z,11.57
2019-03-16T18:37:59.276Z,11.52
2019-03-16T18:42:54.933Z,11.57
2019-03-16T18:47:50.728Z,11.48
2019-03-16T18:52:46.402Z,11.50
2019-03-16T18:57:42.011Z,11.54
2019-03-16T19:02:37.705Z,11.48
2019-03-16T19:07:33.604Z,11.62
2019-03-16T19:12:30.880Z,11.55
2019-03-16T19:17:26.333Z,11.59
2019-03-16T19:22:22.115Z,11.57
2019-03-16T19:27:19.235Z,11.55
2019-03-16T19:32:17.039Z,11.52
2019-03-16T19:37:13.389Z,11.48
2019-03-16T19:42:09.153Z,11.47
2019-03-16T19:47:04.981Z,11.50
2019-03-16T19:52:00.648Z,11.40
2019-03-16T19:56:56.230Z,11.47
2019-03-16T20:01:51.948Z,11.41
2019-03-16T20:06:47.923Z,11.44
2019-03-16T20:11:44.937Z,11.47
2019-03-16T20:16:40.836Z,11.45
2019-03-16T20:21:36.681Z,11.43
2019-03-16T20:26:32.410Z,11.40
2019-03-16T20:31:28.675Z,11.43
2019-03-16T20:36:24.874Z,11.41
2019-03-16T20:41:20.269Z,11.47
2019-03-16T20:46:17.167Z,11.48
2019-03-16T20:51:13.949Z,11.50
2019-03-16T20:56:10.509Z,11.50
2019-03-16T21:01:07.269Z,11.50
2019-03-16T21:06:02.710Z,11.47
2019-03-16T21:10:58.748Z,11.52
2019-03-16T21:15:54.900Z,11.50
2019-03-16T21:20:51.697Z,11.45
2019-03-16T21:25:47.092Z,11.45
2019-03-16T21:30:43.585Z,11.45
2019-03-16T21:35:39.740Z,11.45
2019-03-16T21:40:36.467Z,11.48
2019-03-16T21:45:32.844Z,11.43
2019-03-16T21:50:28.227Z,11.41
2019-03-16T21:55:23.938Z,11.44
2019-03-16T22:00:19.743Z,11.40
2019-03-16T22:05:15.483Z,11.51
2019-03-16T22:10:12.252Z,11.40
2019-03-16T22:15:07.692Z,11.44
2019-03-16T22:20:04.359Z,11.48
2019-03-16T22:25:00.278Z,11.43
2019-03-16T22:29:56.412Z,11.47
2019-03-16T22:34:52.255Z,11.41
2019-03-16T22:39:48.001Z,11.44
2019-03-16T22:44:43.938Z,11.44
2019-03-16T22:49:40.631Z,11.37
2019-03-16T22:54:36.277Z,11.37
2019-03-16T22:59:31.704Z,11.32
2019-03-16T23:04:28.499Z,11.32
2019-03-16T23:09:24.194Z,11.33
2019-03-16T23:14:20.106Z,11.35
2019-03-16T23:19:16.470Z,11.33
2019-03-16T23:24:13.248Z,11.26
2019-03-16T23:29:08.735Z,11.33
2019-03-16T23:34:05.270Z,11.37
2019-03-16T23:39:02.402Z,11.37
2019-03-16T23:43:58.612Z,11.35
2019-03-16T23:48:55.123Z,11.33
2019-03-16T23:53:50.643Z,11.36
2019-03-16T23:58:47.434Z,11.30
